sensor_id;sensor_type;location;lat;lon;timestamp;temperature;humidity
73643;DHT22;61938;48.652;9.292;2023-08-01T00:01:28;17.40;99.90
73643;DHT22;61938;48.652;9.292;2023-08-01T00:03:54;17.30;99.90
73643;DHT22;61938;48.652;9.292;2023-08-01T00:06:19;17.30;99.90
73643;DHT22;61938;48.652;9.292;2023-08-01T00:08:46;17.30;99.90
73643;DHT22;61938;48.652;9.292;2023-08-01T00:11:11;17.30;99.90
73643;DHT22;61938;48.652;9.292;2023-08-01T00:13:39;17.30;99.90
73643;DHT22;61938;48.652;9.292;2023-08-01T00:16:05;17.30;99.90
73643;DHT22;61938;48.652;9.292;2023-08-01T00:18:30;17.30;99.90
73643;DHT22;61938;48.652;9.292;2023-08-01T00:20:56;17.30;99.90
73643;DHT22;61938;48.652;9.292;2023-08-01T00:23:21;17.30;99.90
73643;DHT22;61938;48.652;9.292;2023-08-01T00:25:47;17.30;99.90
73643;DHT22;61938;48.652;9.292;2023-08-01T00:28:17;17.20;99.90
73643;DHT22;61938;48.652;9.292;2023-08-01T00:30:43;17.20;99.90
73643;DHT22;61938;48.652;9.292;2023-08-01T00:33:08;17.20;99.90
73643;DHT22;61938;48.652;9.292;2023-08-01T00:35:34;17.20;99.90
73643;DHT22;61938;48.652;9.292;2023-08-01T00:37:59;17.00;99.90
73643;DHT22;61938;48.652;9.292;2023-08-01T00:40:30;17.00;99.90
73643;DHT22;61938;48.652;9.292;2023-08-01T00:42:56;16.90;99.90
73643;DHT22;61938;48.652;9.292;2023-08-01T00:45:22;17.00;99.90
73643;DHT22;61938;48.652;9.292;2023-08-01T00:47:55;17.00;99.90
73643;DHT22;61938;48.652;9.292;2023-08-01T00:50:21;17.10;99.90
73643;DHT22;61938;48.652;9.292;2023-08-01T00:52:47;17.10;99.90
73643;DHT22;61938;48.652;9.292;2023-08-01T00:55:14;17.20;99.90
73643;DHT22;61938;48.652;9.292;2023-08-01T00:57:41;17.20;99.90
73643;DHT22;61938;48.652;9.292;2023-08-01T01:00:07;17.20;99.90
73643;DHT22;61938;48.652;9.292;2023-08-01T01:02:33;17.20;99.90
73643;DHT22;61938;48.652;9.292;2023-08-01T01:04:59;17.10;99.90
73643;DHT22;61938;48.652;9.292;2023-08-01T01:07:25;17.10;99.90
73643;DHT22;61938;48.652;9.292;2023-08-01T01:09:51;17.10;99.90
73643;DHT22;61938;48.652;9.292;2023-08-01T01:12:17;17.10;99.90
73643;DHT22;61938;48.652;9.292;2023-08-01T01:14:42;17.10;99.90
73643;DHT22;61938;48.652;9.292;2023-08-01T01:17:08;17.00;99.90
73643;DHT22;61938;48.652;9.292;2023-08-01T01:19:33;17.00;99.90
73643;DHT22;61938;48.652;9.292;2023-08-01T01:21:59;17.10;99.90
73643;DHT22;61938;48.652;9.292;2023-08-01T01:24:26;17.10;99.90
73643;DHT22;61938;48.652;9.292;2023-08-01T01:26:53;17.10;99.90
73643;DHT22;61938;48.652;9.292;2023-08-01T01:29:20;17.10;99.90
73643;DHT22;61938;48.652;9.292;2023-08-01T01:31:46;17.10;99.90
73643;DHT22;61938;48.652;9.292;2023-08-01T01:34:13;17.10;99.90
73643;DHT22;61938;48.652;9.292;2023-08-01T01:36:38;17.00;99.90
73643;DHT22;61938;48.652;9.292;2023-08-01T01:39:04;17.00;99.90
73643;DHT22;61938;48.652;9.292;2023-08-01T01:41:30;17.00;99.90
73643;DHT22;61938;48.652;9.292;2023-08-01T01:43:55;19.20;99.90
73643;DHT22;61938;48.652;9.292;2023-08-01T01:46:20;17.00;99.90
73643;DHT22;61938;48.652;9.292;2023-08-01T01:48:46;17.00;99.90
73643;DHT22;61938;48.652;9.292;2023-08-01T01:51:11;17.00;99.90
73643;DHT22;61938;48.652;9.292;2023-08-01T01:53:37;16.90;99.90
73643;DHT22;61938;48.652;9.292;2023-08-01T01:56:02;17.00;99.90
73643;DHT22;61938;48.652;9.292;2023-08-01T01:58:28;17.00;99.90
73643;DHT22;61938;48.652;9.292;2023-08-01T02:00:53;17.00;99.90
73643;DHT22;61938;48.652;9.292;2023-08-01T02:03:19;17.00;99.90
73643;DHT22;61938;48.652;9.292;2023-08-01T02:05:44;17.10;99.90
73643;DHT22;61938;48.652;9.292;2023-08-01T02:08:10;17.10;99.90
73643;DHT22;61938;48.652;9.292;2023-08-01T02:10:35;17.00;99.90
73643;DHT22;61938;48.652;9.292;2023-08-01T02:13:01;17.00;99.90
73643;DHT22;61938;48.652;9.292;2023-08-01T02:15:26;17.00;99.90
73643;DHT22;61938;48.652;9.292;2023-08-01T02:17:52;17.00;99.90
73643;DHT22;61938;48.652;9.292;2023-08-01T02:20:17;17.00;99.90
73643;DHT22;61938;48.652;9.292;2023-08-01T02:22:43;17.00;99.90
73643;DHT22;61938;48.652;9.292;2023-08-01T02:25:08;17.00;99.90
73643;DHT22;61938;48.652;9.292;2023-08-01T02:27:34;17.00;99.90
73643;DHT22;61938;48.652;9.292;2023-08-01T02:29:59;17.00;99.90
73643;DHT22;61938;48.652;9.292;2023-08-01T02:32:25;17.10;99.90
73643;DHT22;61938;48.652;9.292;2023-08-01T02:34:50;17.10;99.90
73643;DHT22;61938;48.652;9.292;2023-08-01T02:37:16;17.20;99.90
73643;DHT22;61938;48.652;9.292;2023-08-01T02:39:41;17.20;99.90
73643;DHT22;61938;48.652;9.292;2023-08-01T02:42:07;17.30;99.90
73643;DHT22;61938;48.652;9.292;2023-08-01T02:44:33;17.30;99.90
73643;DHT22;61938;48.652;9.292;2023-08-01T02:46:59;17.30;99.90
73643;DHT22;61938;48.652;9.292;2023-08-01T02:49:24;17.30;99.90
73643;DHT22;61938;48.652;9.292;2023-08-01T02:51:50;17.40;99.90
73643;DHT22;61938;48.652;9.292;2023-08-01T02:54:15;17.30;99.90
73643;DHT22;61938;48.652;9.292;2023-08-01T02:56:41;17.30;99.90
73643;DHT22;61938;48.652;9.292;2023-08-01T02:59:07;17.40;99.90
73643;DHT22;61938;48.652;9.292;2023-08-01T03:01:37;17.40;99.90
73643;DHT22;61938;48.652;9.292;2023-08-01T03:04:03;17.30;99.90
73643;DHT22;61938;48.652;9.292;2023-08-01T03:06:31;17.40;99.90
73643;DHT22;61938;48.652;9.292;2023-08-01T03:08:56;17.40;99.90
73643;DHT22;61938;48.652;9.292;2023-08-01T03:11:22;17.50;99.90
73643;DHT22;61938;48.652;9.292;2023-08-01T03:13:47;17.50;99.90
73643;DHT22;61938;48.652;9.292;2023-08-01T03:16:13;17.60;99.90
73643;DHT22;61938;48.652;9.292;2023-08-01T03:18:38;17.60;99.90
73643;DHT22;61938;48.652;9.292;2023-08-01T03:21:04;17.60;99.90
73643;DHT22;61938;48.652;9.292;2023-08-01T03:23:30;17.60;99.90
73643;DHT22;61938;48.652;9.292;2023-08-01T03:25:55;17.60;99.90
73643;DHT22;61938;48.652;9.292;2023-08-01T03:28:21;17.60;99.90
73643;DHT22;61938;48.652;9.292;2023-08-01T03:30:46;17.60;99.90
73643;DHT22;61938;48.652;9.292;2023-08-01T03:33:15;17.60;99.90
73643;DHT22;61938;48.652;9.292;2023-08-01T03:35:41;17.60;99.90
73643;DHT22;61938;48.652;9.292;2023-08-01T03:38:06;17.60;99.90
73643;DHT22;61938;48.652;9.292;2023-08-01T03:40:32;17.60;99.90
73643;DHT22;61938;48.652;9.292;2023-08-01T03:42:57;17.70;99.90
73643;DHT22;61938;48.652;9.292;2023-08-01T03:45:23;17.70;99.90
73643;DHT22;61938;48.652;9.292;2023-08-01T03:47:48;17.70;99.90
73643;DHT22;61938;48.652;9.292;2023-08-01T03:50:14;17.70;99.90
73643;DHT22;61938;48.652;9.292;2023-08-01T03:52:39;17.70;99.90
73643;DHT22;61938;48.652;9.292;2023-08-01T03:55:06;17.80;99.90
73643;DHT22;61938;48.652;9.292;2023-08-01T03:57:31;17.80;99.90
73643;DHT22;61938;48.652;9.292;2023-08-01T03:59:59;17.80;99.90
73643;DHT22;61938;48.652;9.292;2023-08-01T04:02:25;17.90;99.90
73643;DHT22;61938;48.652;9.292;2023-08-01T04:04:50;17.90;99.90
73643;DHT22;61938;48.652;9.292;2023-08-01T04:07:16;18.00;99.90
73643;DHT22;61938;48.652;9.292;2023-08-01T04:09:41;18.00;99.90
73643;DHT22;61938;48.652;9.292;2023-08-01T04:12:07;18.00;99.90
73643;DHT22;61938;48.652;9.292;2023-08-01T04:14:34;18.00;99.90
73643;DHT22;61938;48.652;9.292;2023-08-01T04:16:59;18.00;99.90
73643;DHT22;61938;48.652;9.292;2023-08-01T04:19:25;18.00;99.90
73643;DHT22;61938;48.652;9.292;2023-08-01T04:21:50;18.00;99.90
73643;DHT22;61938;48.652;9.292;2023-08-01T04:24:16;18.00;99.90
73643;DHT22;61938;48.652;9.292;2023-08-01T04:26:41;18.00;99.90
73643;DHT22;61938;48.652;9.292;2023-08-01T04:29:07;18.00;99.90
73643;DHT22;61938;48.652;9.292;2023-08-01T04:31:32;18.00;99.90
73643;DHT22;61938;48.652;9.292;2023-08-01T04:33:58;18.10;99.90
73643;DHT22;61938;48.652;9.292;2023-08-01T04:36:24;18.20;99.90
73643;DHT22;61938;48.652;9.292;2023-08-01T04:38:49;18.30;99.90
73643;DHT22;61938;48.652;9.292;2023-08-01T04:41:14;18.40;99.90
73643;DHT22;61938;48.652;9.292;2023-08-01T04:43:40;18.50;99.90
73643;DHT22;61938;48.652;9.292;2023-08-01T04:46:06;18.60;99.90
73643;DHT22;61938;48.652;9.292;2023-08-01T04:48:31;18.60;99.90
73643;DHT22;61938;48.652;9.292;2023-08-01T04:50:57;18.50;99.90
73643;DHT22;61938;48.652;9.292;2023-08-01T04:53:23;18.60;99.90
73643;DHT22;61938;48.652;9.292;2023-08-01T04:55:48;18.60;99.90
73643;DHT22;61938;48.652;9.292;2023-08-01T04:58:14;18.60;99.90
73643;DHT22;61938;48.652;9.292;2023-08-01T05:00:41;18.60;99.90
73643;DHT22;61938;48.652;9.292;2023-08-01T05:03:06;18.60;99.90
73643;DHT22;61938;48.652;9.292;2023-08-01T05:05:32;20.40;99.90
73643;DHT22;61938;48.652;9.292;2023-08-01T05:07:57;18.60;99.90
73643;DHT22;61938;48.652;9.292;2023-08-01T05:10:23;18.60;99.90
73643;DHT22;61938;48.652;9.292;2023-08-01T05:12:48;18.60;99.90
73643;DHT22;61938;48.652;9.292;2023-08-01T05:15:14;18.60;99.90
73643;DHT22;61938;48.652;9.292;2023-08-01T05:17:39;18.60;99.90
73643;DHT22;61938;48.652;9.292;2023-08-01T05:20:05;18.50;99.90
73643;DHT22;61938;48.652;9.292;2023-08-01T05:22:31;18.40;99.90
73643;DHT22;61938;48.652;9.292;2023-08-01T05:24:57;18.50;99.90
73643;DHT22;61938;48.652;9.292;2023-08-01T05:27:22;18.50;99.90
73643;DHT22;61938;48.652;9.292;2023-08-01T05:29:47;18.50;99.90
73643;DHT22;61938;48.652;9.292;2023-08-01T05:32:13;18.50;99.90
73643;DHT22;61938;48.652;9.292;2023-08-01T05:34:39;18.50;99.90
73643;DHT22;61938;48.652;9.292;2023-08-01T05:37:04;18.50;99.90
73643;DHT22;61938;48.652;9.292;2023-08-01T05:39:30;18.50;99.90
73643;DHT22;61938;48.652;9.292;2023-08-01T05:41:56;18.60;99.90
73643;DHT22;61938;48.652;9.292;2023-08-01T05:44:21;18.70;99.90
73643;DHT22;61938;48.652;9.292;2023-08-01T05:46:47;18.70;99.90
73643;DHT22;61938;48.652;9.292;2023-08-01T05:49:12;18.60;99.90
73643;DHT22;61938;48.652;9.292;2023-08-01T05:51:38;18.60;99.90
73643;DHT22;61938;48.652;9.292;2023-08-01T05:54:03;18.70;99.90
73643;DHT22;61938;48.652;9.292;2023-08-01T05:56:29;18.70;99.90
73643;DHT22;61938;48.652;9.292;2023-08-01T05:58:55;18.70;99.90
73643;DHT22;61938;48.652;9.292;2023-08-01T06:01:20;18.70;99.90
73643;DHT22;61938;48.652;9.292;2023-08-01T06:03:46;18.70;99.90
73643;DHT22;61938;48.652;9.292;2023-08-01T06:06:11;18.70;99.90
73643;DHT22;61938;48.652;9.292;2023-08-01T06:08:37;18.60;99.90
73643;DHT22;61938;48.652;9.292;2023-08-01T06:11:02;18.70;99.90
73643;DHT22;61938;48.652;9.292;2023-08-01T06:13:28;18.70;99.90
73643;DHT22;61938;48.652;9.292;2023-08-01T06:15:53;18.80;99.90
73643;DHT22;61938;48.652;9.292;2023-08-01T06:18:19;18.80;99.90
73643;DHT22;61938;48.652;9.292;2023-08-01T06:20:44;18.80;99.90
73643;DHT22;61938;48.652;9.292;2023-08-01T06:23:10;18.80;99.90
73643;DHT22;61938;48.652;9.292;2023-08-01T06:25:35;18.70;99.90
73643;DHT22;61938;48.652;9.292;2023-08-01T06:28:01;18.80;99.90
73643;DHT22;61938;48.652;9.292;2023-08-01T06:30:26;18.70;99.90
73643;DHT22;61938;48.652;9.292;2023-08-01T06:32:52;18.80;99.90
73643;DHT22;61938;48.652;9.292;2023-08-01T06:35:17;18.70;99.90
73643;DHT22;61938;48.652;9.292;2023-08-01T06:37:43;18.80;99.90
73643;DHT22;61938;48.652;9.292;2023-08-01T06:40:09;18.80;99.90
73643;DHT22;61938;48.652;9.292;2023-08-01T06:42:34;18.80;99.90
73643;DHT22;61938;48.652;9.292;2023-08-01T06:45:00;18.70;99.90
73643;DHT22;61938;48.652;9.292;2023-08-01T06:47:25;18.80;99.90
73643;DHT22;61938;48.652;9.292;2023-08-01T06:49:51;18.80;99.90
73643;DHT22;61938;48.652;9.292;2023-08-01T06:52:16;18.80;99.90
73643;DHT22;61938;48.652;9.292;2023-08-01T06:54:42;18.80;99.90
73643;DHT22;61938;48.652;9.292;2023-08-01T06:57:07;18.70;99.90
73643;DHT22;61938;48.652;9.292;2023-08-01T06:59:33;18.70;99.90
73643;DHT22;61938;48.652;9.292;2023-08-01T07:01:59;18.60;99.90
73643;DHT22;61938;48.652;9.292;2023-08-01T07:04:24;18.60;99.90
73643;DHT22;61938;48.652;9.292;2023-08-01T07:06:50;18.60;99.90
73643;DHT22;61938;48.652;9.292;2023-08-01T07:09:15;18.60;99.90
73643;DHT22;61938;48.652;9.292;2023-08-01T07:11:41;18.60;99.90
73643;DHT22;61938;48.652;9.292;2023-08-01T07:14:06;18.60;99.90
73643;DHT22;61938;48.652;9.292;2023-08-01T07:16:32;18.70;99.90
73643;DHT22;61938;48.652;9.292;2023-08-01T07:19:00;18.80;99.90
73643;DHT22;61938;48.652;9.292;2023-08-01T07:21:26;18.80;99.90
73643;DHT22;61938;48.652;9.292;2023-08-01T07:23:51;18.80;99.90
73643;DHT22;61938;48.652;9.292;2023-08-01T07:26:17;18.80;99.90
73643;DHT22;61938;48.652;9.292;2023-08-01T07:28:42;18.70;99.90
73643;DHT22;61938;48.652;9.292;2023-08-01T07:31:08;18.70;99.90
73643;DHT22;61938;48.652;9.292;2023-08-01T07:33:34;18.70;99.90
73643;DHT22;61938;48.652;9.292;2023-08-01T07:36:00;18.60;99.90
73643;DHT22;61938;48.652;9.292;2023-08-01T07:38:26;18.70;99.90
73643;DHT22;61938;48.652;9.292;2023-08-01T07:40:55;18.00;99.90
73643;DHT22;61938;48.652;9.292;2023-08-01T07:43:21;18.80;99.90
73643;DHT22;61938;48.652;9.292;2023-08-01T07:45:46;18.90;99.90
73643;DHT22;61938;48.652;9.292;2023-08-01T07:48:15;18.80;99.90
73643;DHT22;61938;48.652;9.292;2023-08-01T07:50:41;18.80;99.90
73643;DHT22;61938;48.652;9.292;2023-08-01T07:53:06;18.70;99.90
73643;DHT22;61938;48.652;9.292;2023-08-01T07:55:35;18.60;99.90
73643;DHT22;61938;48.652;9.292;2023-08-01T07:58:00;18.50;99.90
73643;DHT22;61938;48.652;9.292;2023-08-01T08:00:26;18.30;99.90
73643;DHT22;61938;48.652;9.292;2023-08-01T08:02:53;18.10;99.90
73643;DHT22;61938;48.652;9.292;2023-08-01T08:05:19;17.80;99.90
73643;DHT22;61938;48.652;9.292;2023-08-01T08:07:44;17.50;99.90
73643;DHT22;61938;48.652;9.292;2023-08-01T08:10:10;17.40;99.90
73643;DHT22;61938;48.652;9.292;2023-08-01T08:12:35;17.30;99.90
73643;DHT22;61938;48.652;9.292;2023-08-01T08:15:01;17.30;99.90
73643;DHT22;61938;48.652;9.292;2023-08-01T08:17:27;17.20;99.90
73643;DHT22;61938;48.652;9.292;2023-08-01T08:19:53;17.10;99.90
73643;DHT22;61938;48.652;9.292;2023-08-01T08:22:18;17.00;99.90
73643;DHT22;61938;48.652;9.292;2023-08-01T08:24:44;16.90;99.90
73643;DHT22;61938;48.652;9.292;2023-08-01T08:27:09;16.90;99.90
73643;DHT22;61938;48.652;9.292;2023-08-01T08:29:35;16.80;99.90
73643;DHT22;61938;48.652;9.292;2023-08-01T08:32:00;16.80;99.90
73643;DHT22;61938;48.652;9.292;2023-08-01T08:34:26;16.70;99.90
73643;DHT22;61938;48.652;9.292;2023-08-01T08:36:52;16.70;99.90
73643;DHT22;61938;48.652;9.292;2023-08-01T08:39:18;16.70;99.90
73643;DHT22;61938;48.652;9.292;2023-08-01T08:41:51;16.70;99.90
73643;DHT22;61938;48.652;9.292;2023-08-01T08:44:19;16.70;99.90
73643;DHT22;61938;48.652;9.292;2023-08-01T08:46:53;16.80;99.90
73643;DHT22;61938;48.652;9.292;2023-08-01T08:49:19;16.80;99.90
73643;DHT22;61938;48.652;9.292;2023-08-01T08:51:47;16.90;99.90
73643;DHT22;61938;48.652;9.292;2023-08-01T08:54:13;17.00;99.90
73643;DHT22;61938;48.652;9.292;2023-08-01T08:56:40;17.10;99.90
73643;DHT22;61938;48.652;9.292;2023-08-01T08:59:08;17.10;99.90
73643;DHT22;61938;48.652;9.292;2023-08-01T09:01:38;17.20;99.90
73643;DHT22;61938;48.652;9.292;2023-08-01T09:04:04;17.30;99.90
73643;DHT22;61938;48.652;9.292;2023-08-01T09:06:42;17.30;99.90
73643;DHT22;61938;48.652;9.292;2023-08-01T09:09:12;17.30;99.90
73643;DHT22;61938;48.652;9.292;2023-08-01T09:11:46;17.30;99.90
73643;DHT22;61938;48.652;9.292;2023-08-01T09:14:12;17.30;99.90
73643;DHT22;61938;48.652;9.292;2023-08-01T09:16:39;17.30;99.90
73643;DHT22;61938;48.652;9.292;2023-08-01T09:19:06;17.20;99.90
73643;DHT22;61938;48.652;9.292;2023-08-01T09:21:33;17.30;99.90
73643;DHT22;61938;48.652;9.292;2023-08-01T09:24:09;17.30;99.90
73643;DHT22;61938;48.652;9.292;2023-08-01T09:26:36;17.40;99.90
73643;DHT22;61938;48.652;9.292;2023-08-01T09:29:01;17.40;99.90
73643;DHT22;61938;48.652;9.292;2023-08-01T09:31:29;17.40;99.90
73643;DHT22;61938;48.652;9.292;2023-08-01T09:33:55;17.50;99.90
73643;DHT22;61938;48.652;9.292;2023-08-01T09:36:21;17.60;99.90
73643;DHT22;61938;48.652;9.292;2023-08-01T09:38:51;17.70;99.90
73643;DHT22;61938;48.652;9.292;2023-08-01T09:41:20;17.70;99.90
73643;DHT22;61938;48.652;9.292;2023-08-01T09:43:49;17.70;99.90
73643;DHT22;61938;48.652;9.292;2023-08-01T09:46:15;17.70;99.90
73643;DHT22;61938;48.652;9.292;2023-08-01T09:48:42;17.60;99.90
73643;DHT22;61938;48.652;9.292;2023-08-01T09:51:09;17.60;99.90
73643;DHT22;61938;48.652;9.292;2023-08-01T09:53:51;17.50;99.90
73643;DHT22;61938;48.652;9.292;2023-08-01T09:56:25;17.40;99.90
73643;DHT22;61938;48.652;9.292;2023-08-01T09:58:52;17.40;99.90
73643;DHT22;61938;48.652;9.292;2023-08-01T10:01:20;17.30;99.90
73643;DHT22;61938;48.652;9.292;2023-08-01T10:03:48;17.30;99.90
73643;DHT22;61938;48.652;9.292;2023-08-01T10:06:17;17.30;99.90
73643;DHT22;61938;48.652;9.292;2023-08-01T10:08:45;17.40;99.90
73643;DHT22;61938;48.652;9.292;2023-08-01T10:11:12;17.40;99.90
73643;DHT22;61938;48.652;9.292;2023-08-01T10:13:41;17.50;99.90
73643;DHT22;61938;48.652;9.292;2023-08-01T10:16:07;17.50;99.90
73643;DHT22;61938;48.652;9.292;2023-08-01T10:18:33;17.60;99.90
73643;DHT22;61938;48.652;9.292;2023-08-01T10:21:00;17.70;99.90
73643;DHT22;61938;48.652;9.292;2023-08-01T10:23:27;17.70;99.90
73643;DHT22;61938;48.652;9.292;2023-08-01T10:25:53;17.80;99.90
73643;DHT22;61938;48.652;9.292;2023-08-01T10:28:18;17.80;99.90
73643;DHT22;61938;48.652;9.292;2023-08-01T10:30:44;17.80;99.90
73643;DHT22;61938;48.652;9.292;2023-08-01T10:33:10;17.90;99.90
73643;DHT22;61938;48.652;9.292;2023-08-01T10:35:39;17.90;99.90
73643;DHT22;61938;48.652;9.292;2023-08-01T10:38:12;18.00;99.90
73643;DHT22;61938;48.652;9.292;2023-08-01T10:40:42;18.10;99.90
73643;DHT22;61938;48.652;9.292;2023-08-01T10:43:24;18.10;99.90
73643;DHT22;61938;48.652;9.292;2023-08-01T10:46:03;18.20;99.90
73643;DHT22;61938;48.652;9.292;2023-08-01T10:48:29;18.20;99.90
73643;DHT22;61938;48.652;9.292;2023-08-01T10:50:55;18.30;99.90
73643;DHT22;61938;48.652;9.292;2023-08-01T10:53:22;18.40;99.90
73643;DHT22;61938;48.652;9.292;2023-08-01T10:55:47;18.50;99.90
73643;DHT22;61938;48.652;9.292;2023-08-01T10:58:14;18.60;99.90
73643;DHT22;61938;48.652;9.292;2023-08-01T11:00:42;18.70;99.90
73643;DHT22;61938;48.652;9.292;2023-08-01T11:03:08;18.80;99.90
73643;DHT22;61938;48.652;9.292;2023-08-01T11:05:34;19.30;99.90
73643;DHT22;61938;48.652;9.292;2023-08-01T11:08:01;20.00;99.90
73643;DHT22;61938;48.652;9.292;2023-08-01T11:10:30;20.40;99.90
73643;DHT22;61938;48.652;9.292;2023-08-01T11:12:57;20.70;99.90
73643;DHT22;61938;48.652;9.292;2023-08-01T11:15:23;20.40;99.90
73643;DHT22;61938;48.652;9.292;2023-08-01T11:17:50;20.20;99.90
73643;DHT22;61938;48.652;9.292;2023-08-01T11:20:17;20.10;99.90
73643;DHT22;61938;48.652;9.292;2023-08-01T11:23:08;20.40;99.90
73643;DHT22;61938;48.652;9.292;2023-08-01T11:25:39;20.40;99.90
73643;DHT22;61938;48.652;9.292;2023-08-01T11:28:06;20.30;99.90
73643;DHT22;61938;48.652;9.292;2023-08-01T11:30:33;20.30;99.90
73643;DHT22;61938;48.652;9.292;2023-08-01T11:32:59;20.30;99.90
73643;DHT22;61938;48.652;9.292;2023-08-01T11:35:24;20.10;99.90
73643;DHT22;61938;48.652;9.292;2023-08-01T11:37:51;20.30;99.90
73643;DHT22;61938;48.652;9.292;2023-08-01T11:40:17;20.60;99.90
73643;DHT22;61938;48.652;9.292;2023-08-01T11:42:43;20.60;99.90
73643;DHT22;61938;48.652;9.292;2023-08-01T11:45:10;20.80;99.90
73643;DHT22;61938;48.652;9.292;2023-08-01T11:47:36;21.00;99.90
73643;DHT22;61938;48.652;9.292;2023-08-01T11:50:02;21.40;99.90
73643;DHT22;61938;48.652;9.292;2023-08-01T11:52:28;21.90;99.90
73643;DHT22;61938;48.652;9.292;2023-08-01T11:54:55;22.00;99.90
73643;DHT22;61938;48.652;9.292;2023-08-01T11:57:21;22.20;99.90
73643;DHT22;61938;48.652;9.292;2023-08-01T11:59:48;22.50;99.90
73643;DHT22;61938;48.652;9.292;2023-08-01T12:02:28;22.00;99.90
73643;DHT22;61938;48.652;9.292;2023-08-01T12:04:55;21.30;99.90
73643;DHT22;61938;48.652;9.292;2023-08-01T12:07:25;21.30;99.90
73643;DHT22;61938;48.652;9.292;2023-08-01T12:09:58;21.10;99.90
73643;DHT22;61938;48.652;9.292;2023-08-01T12:12:26;21.20;99.90
73643;DHT22;61938;48.652;9.292;2023-08-01T12:14:52;21.80;99.90
73643;DHT22;61938;48.652;9.292;2023-08-01T12:17:18;22.30;99.90
73643;DHT22;61938;48.652;9.292;2023-08-01T12:19:44;22.50;99.90
73643;DHT22;61938;48.652;9.292;2023-08-01T12:22:10;22.70;99.90
73643;DHT22;61938;48.652;9.292;2023-08-01T12:24:35;23.10;99.90
73643;DHT22;61938;48.652;9.292;2023-08-01T12:27:07;22.70;99.90
73643;DHT22;61938;48.652;9.292;2023-08-01T12:29:33;22.70;99.90
73643;DHT22;61938;48.652;9.292;2023-08-01T12:31:58;22.70;99.90
73643;DHT22;61938;48.652;9.292;2023-08-01T12:34:24;22.50;99.90
73643;DHT22;61938;48.652;9.292;2023-08-01T12:36:49;23.00;99.90
73643;DHT22;61938;48.652;9.292;2023-08-01T12:39:16;22.90;99.90
73643;DHT22;61938;48.652;9.292;2023-08-01T12:41:41;22.70;99.90
73643;DHT22;61938;48.652;9.292;2023-08-01T12:44:07;22.60;99.90
73643;DHT22;61938;48.652;9.292;2023-08-01T12:46:32;22.70;99.90
73643;DHT22;61938;48.652;9.292;2023-08-01T12:48:58;22.30;99.90
73643;DHT22;61938;48.652;9.292;2023-08-01T12:51:24;22.70;99.90
73643;DHT22;61938;48.652;9.292;2023-08-01T12:53:49;23.10;99.90
73643;DHT22;61938;48.652;9.292;2023-08-01T12:56:15;23.20;99.90
73643;DHT22;61938;48.652;9.292;2023-08-01T12:58:40;23.20;99.90
73643;DHT22;61938;48.652;9.292;2023-08-01T13:01:06;23.10;99.90
73643;DHT22;61938;48.652;9.292;2023-08-01T13:03:31;22.90;99.90
73643;DHT22;61938;48.652;9.292;2023-08-01T13:05:57;22.90;99.90
73643;DHT22;61938;48.652;9.292;2023-08-01T13:08:23;22.70;99.90
73643;DHT22;61938;48.652;9.292;2023-08-01T13:10:49;22.60;99.90
73643;DHT22;61938;48.652;9.292;2023-08-01T13:13:15;22.20;99.90
73643;DHT22;61938;48.652;9.292;2023-08-01T13:15:41;22.50;99.90
73643;DHT22;61938;48.652;9.292;2023-08-01T13:18:06;22.50;99.90
73643;DHT22;61938;48.652;9.292;2023-08-01T13:20:32;22.70;99.90
73643;DHT22;61938;48.652;9.292;2023-08-01T13:22:58;22.60;99.90
73643;DHT22;61938;48.652;9.292;2023-08-01T13:25:23;22.90;99.90
73643;DHT22;61938;48.652;9.292;2023-08-01T13:27:49;22.50;99.90
73643;DHT22;61938;48.652;9.292;2023-08-01T13:30:14;22.80;99.90
73643;DHT22;61938;48.652;9.292;2023-08-01T13:32:43;22.80;99.90
73643;DHT22;61938;48.652;9.292;2023-08-01T13:35:08;23.00;99.90
73643;DHT22;61938;48.652;9.292;2023-08-01T13:37:34;23.20;99.90
73643;DHT22;61938;48.652;9.292;2023-08-01T13:40:00;23.40;99.90
73643;DHT22;61938;48.652;9.292;2023-08-01T13:42:26;23.60;99.90
73643;DHT22;61938;48.652;9.292;2023-08-01T13:44:54;23.60;99.90
73643;DHT22;61938;48.652;9.292;2023-08-01T13:47:19;23.70;99.90
73643;DHT22;61938;48.652;9.292;2023-08-01T13:49:45;23.70;99.90
73643;DHT22;61938;48.652;9.292;2023-08-01T13:52:11;23.60;99.90
73643;DHT22;61938;48.652;9.292;2023-08-01T13:54:36;23.60;99.90
73643;DHT22;61938;48.652;9.292;2023-08-01T13:57:02;23.50;99.90
73643;DHT22;61938;48.652;9.292;2023-08-01T13:59:27;23.30;99.90
73643;DHT22;61938;48.652;9.292;2023-08-01T14:01:53;23.20;99.90
73643;DHT22;61938;48.652;9.292;2023-08-01T14:04:19;23.10;99.90
73643;DHT22;61938;48.652;9.292;2023-08-01T14:06:45;23.40;99.90
73643;DHT22;61938;48.652;9.292;2023-08-01T14:09:10;23.70;99.90
73643;DHT22;61938;48.652;9.292;2023-08-01T14:11:36;23.60;99.90
73643;DHT22;61938;48.652;9.292;2023-08-01T14:14:02;23.50;99.90
73643;DHT22;61938;48.652;9.292;2023-08-01T14:16:28;23.30;99.90
73643;DHT22;61938;48.652;9.292;2023-08-01T14:18:54;23.60;99.90
73643;DHT22;61938;48.652;9.292;2023-08-01T14:21:19;23.80;99.90
73643;DHT22;61938;48.652;9.292;2023-08-01T14:23:45;23.90;99.90
73643;DHT22;61938;48.652;9.292;2023-08-01T14:26:10;23.90;99.90
73643;DHT22;61938;48.652;9.292;2023-08-01T14:28:36;23.80;99.90
73643;DHT22;61938;48.652;9.292;2023-08-01T14:31:02;23.70;99.90
73643;DHT22;61938;48.652;9.292;2023-08-01T14:33:28;23.70;99.90
73643;DHT22;61938;48.652;9.292;2023-08-01T14:35:54;23.70;99.90
73643;DHT22;61938;48.652;9.292;2023-08-01T14:38:19;23.60;99.90
73643;DHT22;61938;48.652;9.292;2023-08-01T14:40:45;25.80;99.90
73643;DHT22;61938;48.652;9.292;2023-08-01T14:43:11;23.60;99.90
73643;DHT22;61938;48.652;9.292;2023-08-01T14:45:39;23.70;99.90
73643;DHT22;61938;48.652;9.292;2023-08-01T14:48:06;23.80;99.90
73643;DHT22;61938;48.652;9.292;2023-08-01T14:50:32;23.40;99.90
73643;DHT22;61938;48.652;9.292;2023-08-01T14:52:57;23.20;99.90
73643;DHT22;61938;48.652;9.292;2023-08-01T14:55:23;23.40;99.90
73643;DHT22;61938;48.652;9.292;2023-08-01T14:57:48;23.40;99.90
73643;DHT22;61938;48.652;9.292;2023-08-01T15:00:15;23.20;99.90
73643;DHT22;61938;48.652;9.292;2023-08-01T15:02:41;23.20;99.90
73643;DHT22;61938;48.652;9.292;2023-08-01T15:05:06;23.20;99.90
73643;DHT22;61938;48.652;9.292;2023-08-01T15:07:32;23.40;99.90
73643;DHT22;61938;48.652;9.292;2023-08-01T15:09:57;23.50;99.90
73643;DHT22;61938;48.652;9.292;2023-08-01T15:12:23;23.60;99.90
73643;DHT22;61938;48.652;9.292;2023-08-01T15:14:53;23.60;99.90
73643;DHT22;61938;48.652;9.292;2023-08-01T15:17:19;23.40;99.90
73643;DHT22;61938;48.652;9.292;2023-08-01T15:19:44;23.40;99.90
73643;DHT22;61938;48.652;9.292;2023-08-01T15:22:15;23.10;99.90
73643;DHT22;61938;48.652;9.292;2023-08-01T15:24:40;22.90;99.90